createdAt,value
2023-07-15T00:04:35.939Z,16.97
2023-07-15T00:09:41.747Z,17.02
2023-07-15T00:14:45.875Z,16.98
2023-07-15T00:19:49.717Z,16.86
2023-07-15T00:24:53.982Z,16.82
2023-07-15T00:29:57.876Z,16.84
2023-07-15T00:35:01.745Z,16.82
2023-07-15T00:44:00.206Z,16.80
2023-07-15T00:49:15.146Z,16.72
2023-07-15T00:54:24.532Z,16.64
2023-07-15T00:59:33.452Z,16.61
2023-07-15T01:04:44.272Z,16.57
2023-07-15T01:09:53.480Z,16.56
2023-07-15T01:15:01.306Z,16.56
2023-07-15T01:20:10.661Z,16.53
2023-07-15T01:25:18.189Z,16.53
2023-07-15T01:30:25.539Z,16.49
2023-07-15T01:35:33.580Z,16.47
2023-07-15T01:40:40.904Z,16.50
2023-07-15T01:46:17.111Z,16.51
2023-07-15T01:51:25.712Z,16.48
2023-07-15T01:56:33.218Z,16.54
2023-07-15T02:01:42.550Z,16.55
2023-07-15T02:06:50.315Z,16.49
2023-07-15T02:11:58.098Z,16.39
2023-07-15T02:17:06.009Z,16.41
2023-07-15T02:22:13.651Z,16.48
2023-07-15T02:27:21.406Z,16.46
2023-07-15T02:32:43.490Z,16.43
2023-07-15T02:37:51.573Z,16.32
2023-07-15T02:42:58.974Z,16.22
2023-07-15T02:48:07.692Z,16.13
2023-07-15T02:53:15.008Z,16.08
2023-07-15T02:58:22.337Z,16.02
2023-07-15T03:03:29.762Z,16.02
2023-07-15T03:08:37.563Z,16.02
2023-07-15T03:13:45.207Z,16.01
2023-07-15T03:18:53.270Z,15.99
2023-07-15T03:24:00.699Z,16.03
2023-07-15T03:29:10.278Z,16.02
2023-07-15T03:34:17.845Z,16.06
2023-07-15T03:39:25.397Z,16.14
2023-07-15T03:44:32.914Z,16.17
2023-07-15T03:49:40.724Z,16.18
2023-07-15T03:54:48.695Z,16.25
2023-07-15T03:59:56.317Z,16.35
2023-07-15T04:05:03.636Z,16.43
2023-07-15T04:10:13.167Z,16.53
2023-07-15T04:15:22.738Z,16.64
2023-07-15T04:20:30.376Z,16.72
2023-07-15T04:25:38.351Z,16.83
2023-07-15T04:30:46.239Z,16.94
2023-07-15T04:35:53.891Z,17.08
2023-07-15T04:41:01.695Z,17.22
2023-07-15T04:46:10.275Z,17.34
2023-07-15T04:51:18.075Z,17.47
2023-07-15T04:56:26.384Z,17.62
2023-07-15T05:01:34.035Z,17.76
2023-07-15T05:06:41.700Z,17.91
2023-07-15T05:11:49.684Z,18.08
2023-07-15T05:16:57.944Z,18.24
2023-07-15T05:22:05.993Z,18.39
2023-07-15T05:27:13.872Z,18.54
2023-07-15T05:32:21.303Z,18.71
2023-07-15T05:37:28.922Z,18.97
2023-07-15T05:42:36.642Z,19.30
2023-07-15T05:47:44.752Z,19.57
2023-07-15T05:52:52.138Z,19.84
2023-07-15T05:57:59.622Z,20.11
2023-07-15T06:03:07.615Z,20.34
2023-07-15T06:08:15.142Z,20.61
2023-07-15T06:13:22.679Z,20.88
2023-07-15T06:18:30.674Z,21.14
2023-07-15T06:23:38.221Z,21.36
2023-07-15T06:28:45.652Z,21.57
2023-07-15T06:33:53.197Z,21.75
2023-07-15T06:39:00.683Z,21.91
2023-07-15T06:44:08.887Z,22.03
2023-07-15T06:49:16.644Z,22.16
2023-07-15T06:54:25.206Z,22.29
2023-07-15T06:59:32.802Z,22.41
2023-07-15T07:04:40.749Z,22.52
2023-07-15T07:09:48.442Z,22.61
2023-07-15T07:14:56.119Z,22.75
2023-07-15T07:20:05.238Z,22.93
2023-07-15T07:25:14.138Z,23.11
2023-07-15T07:30:22.071Z,23.27
2023-07-15T07:35:30.298Z,23.41
2023-07-15T07:40:38.900Z,23.56
2023-07-15T07:45:46.625Z,23.69
2023-07-15T07:50:54.380Z,23.84
2023-07-15T07:56:01.938Z,23.98
2023-07-15T08:01:12.602Z,24.12
2023-07-15T08:06:22.418Z,24.28
2023-07-15T08:11:30.396Z,24.41
2023-07-15T08:16:39.783Z,24.55
2023-07-15T08:21:47.652Z,24.69
2023-07-15T08:26:55.274Z,24.87
2023-07-15T08:32:03.030Z,25.06
2023-07-15T08:37:11.148Z,25.28
2023-07-15T08:42:21.477Z,25.56
2023-07-15T08:47:29.257Z,25.82
2023-07-15T08:52:38.181Z,26.12
2023-07-15T08:57:46.059Z,26.29
2023-07-15T09:02:55.942Z,26.54
2023-07-15T09:08:14.330Z,26.86
2023-07-15T09:13:27.340Z,27.17
2023-07-15T09:18:40.976Z,27.43
2023-07-15T09:23:49.476Z,27.67
2023-07-15T09:28:57.636Z,27.87
2023-07-15T09:34:08.230Z,27.92
2023-07-15T09:39:21.286Z,27.90
2023-07-15T09:44:37.897Z,28.00
2023-07-15T09:49:45.719Z,28.03
2023-07-15T09:54:54.138Z,28.00
2023-07-15T10:00:01.854Z,28.01
2023-07-15T10:05:14.682Z,28.03
2023-07-15T10:10:23.631Z,28.05
2023-07-15T10:15:31.585Z,28.15
2023-07-15T10:20:39.430Z,28.27
2023-07-15T10:29:04.648Z,28.41
2023-07-15T10:34:13.825Z,28.46
2023-07-15T10:39:21.586Z,28.52
2023-07-15T10:44:27.792Z,28.56
2023-07-15T10:49:32.584Z,28.52
2023-07-15T10:54:39.659Z,28.55
2023-07-15T10:59:46.275Z,28.63
2023-07-15T11:04:50.995Z,28.68
2023-07-15T11:09:55.215Z,28.72
2023-07-15T11:14:59.575Z,28.77
2023-07-15T11:23:24.847Z,28.83
2023-07-15T11:28:32.455Z,28.84
2023-07-15T11:33:40.113Z,28.90
2023-07-15T11:38:47.980Z,28.92
2023-07-15T11:43:56.053Z,28.92
2023-07-15T11:49:03.779Z,28.91
2023-07-15T11:54:14.031Z,28.92
2023-07-15T11:59:32.221Z,28.94
2023-07-15T12:04:39.875Z,29.00
2023-07-15T12:09:47.386Z,29.06
2023-07-15T12:18:21.885Z,29.22
2023-07-15T12:23:26.352Z,29.26
2023-07-15T12:28:30.479Z,29.29
2023-07-15T12:33:34.269Z,29.33
2023-07-15T12:38:38.474Z,29.38
2023-07-15T12:43:42.649Z,29.44
2023-07-15T12:51:13.646Z,29.56
2023-07-15T12:56:23.245Z,29.63
2023-07-15T13:01:31.036Z,29.68
2023-07-15T13:06:38.726Z,29.75
2023-07-15T13:11:46.453Z,29.79
2023-07-15T13:16:54.112Z,29.82
2023-07-15T13:22:01.876Z,29.85
2023-07-15T13:27:10.205Z,29.89
2023-07-15T13:32:18.052Z,29.91
2023-07-15T13:37:25.472Z,29.95
2023-07-15T13:42:33.183Z,29.96
2023-07-15T13:47:40.904Z,30.01
2023-07-15T13:52:48.646Z,30.05
2023-07-15T13:57:56.829Z,30.06
2023-07-15T14:03:04.374Z,30.08
2023-07-15T14:08:11.920Z,30.11
2023-07-15T14:13:19.555Z,30.11
2023-07-15T14:18:28.909Z,30.14
2023-07-15T14:23:36.786Z,30.18
2023-07-15T14:28:44.885Z,30.25
2023-07-15T14:33:55.732Z,30.30
2023-07-15T14:39:03.355Z,30.29
2023-07-15T14:44:12.910Z,30.27
2023-07-15T14:54:29.033Z,30.34
2023-07-15T14:59:36.863Z,30.39
2023-07-15T15:04:44.764Z,30.45
2023-07-15T15:09:52.375Z,30.47
2023-07-15T15:14:59.994Z,30.49
2023-07-15T15:20:08.986Z,30.49
2023-07-15T15:25:16.772Z,30.50
2023-07-15T15:30:24.770Z,30.51
2023-07-15T15:35:33.211Z,30.49
2023-07-15T15:40:41.128Z,30.47
2023-07-15T15:45:48.523Z,30.44
2023-07-15T15:50:55.954Z,30.41
2023-07-15T15:56:03.432Z,30.38
2023-07-15T16:01:11.269Z,30.39
2023-07-15T16:06:18.761Z,30.40
2023-07-15T16:11:27.184Z,30.39
2023-07-15T16:16:35.138Z,30.39
2023-07-15T16:21:42.607Z,30.39
2023-07-15T16:26:50.216Z,30.39
2023-07-15T16:31:58.441Z,30.39
2023-07-15T16:37:06.422Z,30.37
2023-07-15T16:42:14.084Z,30.36
2023-07-15T16:47:21.875Z,30.33
2023-07-15T16:52:29.304Z,30.30
2023-07-15T16:57:37.228Z,30.27
2023-07-15T17:02:45.530Z,30.26
2023-07-15T17:07:53.494Z,30.23
2023-07-15T17:13:01.168Z,30.19
2023-07-15T17:18:10.031Z,30.17
2023-07-15T17:23:19.013Z,30.14
2023-07-15T17:31:09.423Z,30.06
2023-07-15T17:36:17.658Z,29.96
2023-07-15T17:41:26.801Z,29.87
2023-07-15T17:46:34.408Z,29.74
2023-07-15T17:51:42.203Z,29.57
2023-07-15T17:56:49.809Z,29.49
2023-07-15T18:01:57.408Z,29.42
2023-07-15T18:07:05.494Z,29.29
2023-07-15T18:12:14.155Z,29.14
2023-07-15T18:17:22.011Z,29.01
2023-07-15T18:22:29.834Z,28.88
2023-07-15T18:27:38.061Z,28.75
2023-07-15T18:32:45.889Z,28.61
2023-07-15T18:37:53.548Z,28.49
2023-07-15T18:43:01.136Z,28.37
2023-07-15T18:48:09.287Z,28.24
2023-07-15T18:53:16.889Z,28.03
2023-07-15T18:58:24.516Z,27.82
2023-07-15T19:03:33.866Z,27.54
2023-07-15T19:08:43.935Z,27.29
2023-07-15T19:13:53.364Z,27.08
2023-07-15T19:19:03.118Z,26.92
2023-07-15T19:24:11.208Z,26.77
2023-07-15T19:29:18.785Z,26.58
2023-07-15T19:34:26.523Z,26.36
2023-07-15T19:39:34.298Z,26.11
2023-07-15T19:44:42.357Z,25.68
2023-07-15T19:49:51.033Z,25.25
2023-07-15T19:54:58.957Z,24.97
2023-07-15T20:00:09.964Z,24.76
2023-07-15T20:05:18.061Z,24.52
2023-07-15T20:10:28.835Z,24.31
2023-07-15T20:15:37.648Z,24.16
2023-07-15T20:20:45.140Z,23.93
2023-07-15T20:25:52.809Z,23.60
2023-07-15T20:31:04.123Z,23.35
2023-07-15T20:36:12.839Z,23.27
2023-07-15T20:41:20.803Z,23.14
2023-07-15T20:46:28.714Z,22.95
2023-07-15T20:51:36.815Z,22.81
2023-07-15T20:56:50.672Z,22.67
2023-07-15T21:01:59.283Z,22.63
2023-07-15T21:07:07.931Z,22.55
2023-07-15T21:12:16.733Z,22.43
2023-07-15T21:17:25.087Z,22.32
2023-07-15T21:22:33.087Z,22.29
2023-07-15T21:27:40.627Z,22.20
2023-07-15T21:32:50.347Z,22.18
2023-07-15T21:37:57.882Z,22.01
2023-07-15T21:43:05.942Z,21.86
2023-07-15T21:48:15.739Z,21.83
2023-07-15T21:53:23.598Z,21.84
2023-07-15T21:58:32.009Z,21.83
2023-07-15T22:03:39.873Z,21.85
2023-07-15T22:08:47.472Z,21.74
2023-07-15T22:13:55.276Z,21.56
2023-07-15T22:19:05.966Z,21.43
2023-07-15T22:24:14.276Z,21.39
2023-07-15T22:29:22.040Z,21.39
2023-07-15T22:34:30.397Z,21.41
2023-07-15T22:39:41.082Z,21.38
2023-07-15T22:44:48.682Z,21.40
2023-07-15T22:49:56.350Z,21.41
2023-07-15T22:55:04.938Z,21.34
2023-07-15T23:00:15.116Z,21.26
2023-07-15T23:05:23.029Z,21.09
2023-07-15T23:10:30.948Z,20.99
2023-07-15T23:15:39.360Z,20.93
2023-07-15T23:20:47.094Z,20.82
2023-07-15T23:25:55.331Z,20.66
2023-07-15T23:31:03.279Z,20.52
2023-07-15T23:36:11.065Z,20.40
2023-07-15T23:41:21.077Z,20.28
2023-07-15T23:46:28.832Z,20.15
2023-07-15T23:51:36.329Z,20.09
2023-07-15T23:56:43.936Z,20.07
